Time;durP1;ratioP1;P1;durP2;ratioP2;P2;SDS_P1;SDS_P2;PMS_P1;PMS_P2;Temp;Humidity;BMP_temperature;BMP_pressure;BME280_temperature;BME280_humidity;BME280_pressure;Samples;Min_cycle;Max_cycle;Signal;HPM_P1;HPM_P2
2023/01/17 00:01:16;;;;;;;1999.90;999.90;;;3.50;99.90;;;;;;5054072;28;20083;-75
2023/01/17 00:11:58;;;;;;;1999.90;999.90;;;3.50;99.90;;;;;;5054077;28;20037;-75
2023/01/17 00:14:24;;;;;;;1999.90;999.90;;;3.40;99.90;;;;;;5053827;28;20487;-75
2023/01/17 00:16:50;;;;;;;1999.90;999.90;;;3.40;99.90;;;;;;5053569;28;20034;-75
2023/01/17 01:33:47;;;;;;;1999.90;999.90;;;2.70;99.90;;;;;;5055986;28;20041;-75
2023/01/17 01:36:13;;;;;;;1999.90;999.90;;;2.60;99.90;;;;;;5055993;28;20038;-74
2023/01/17 01:38:38;;;;;;;1999.90;999.90;;;2.50;99.90;;;;;;5055910;28;20048;-74
2023/01/17 01:41:04;;;;;;;1999.90;999.90;;;2.60;99.90;;;;;;5056088;28;20037;-74
2023/01/17 01:43:47;;;;;;;1999.90;999.90;;;2.60;99.90;;;;;;5056021;28;20458;-75
2023/01/17 01:46:28;;;;;;;1999.90;999.90;;;2.50;99.90;;;;;;5054451;28;20041;-74
2023/01/17 01:48:57;;;;;;;1999.90;999.90;;;2.50;99.90;;;;;;5055980;28;20044;-74
2023/01/17 01:51:31;;;;;;;1999.90;999.90;;;2.60;99.90;;;;;;5055776;28;20057;-74
2023/01/17 01:54:03;;;;;;;1999.90;999.90;;;2.70;99.90;;;;;;5055577;28;20045;-74
2023/01/17 01:56:30;;;;;;;1999.90;999.90;;;2.70;99.90;;;;;;5054175;28;20084;-74
2023/01/17 01:58:59;;;;;;;1999.90;999.90;;;2.80;99.90;;;;;;5055754;28;20029;-74
2023/01/17 02:01:24;;;;;;;1999.90;999.90;;;2.80;99.90;;;;;;5055673;28;20512;-74
2023/01/17 02:03:50;;;;;;;1999.90;999.90;;;2.70;99.90;;;;;;5055354;28;20048;-74
2023/01/17 02:06:36;;;;;;;1999.90;999.90;;;2.70;99.90;;;;;;5055445;28;20034;-74
2023/01/17 02:09:06;;;;;;;1999.90;999.90;;;2.50;99.90;;;;;;5055166;28;20038;-75
2023/01/17 02:11:33;;;;;;;1999.90;999.90;;;2.50;99.90;;;;;;5055467;28;20030;-74
2023/01/17 02:13:59;;;;;;;1999.90;999.90;;;2.50;99.90;;;;;;5053741;28;20037;-74
2023/01/17 02:16:30;;;;;;;1999.90;999.90;;;2.40;99.90;;;;;;5055129;28;20034;-74
2023/01/17 02:19:17;;;;;;;1999.90;999.90;;;2.40;99.90;;;;;;5055622;28;20048;-74
2023/01/17 02:22:13;;;;;;;1999.90;999.90;;;2.50;99.90;;;;;;5053774;28;20895;-74
2023/01/17 02:24:48;;;;;;;1999.90;999.90;;;2.50;99.90;;;;;;5054559;28;20504;-74
2023/01/17 02:27:24;;;;;;;1999.90;999.90;;;2.60;99.90;;;;;;5055161;28;20033;-74
2023/01/17 02:30:08;;;;;;;1999.90;999.90;;;2.70;99.90;;;;;;5055208;28;20169;-74
2023/01/17 02:32:48;;;;;;;1999.90;999.90;;;2.70;99.90;;;;;;5055097;28;20487;-74
2023/01/17 02:35:27;;;;;;;1999.90;999.90;;;2.70;99.90;;;;;;5053524;28;20091;-74
2023/01/17 02:38:06;;;;;;;1999.90;999.90;;;2.80;99.90;;;;;;5054090;28;20022;-74
2023/01/17 02:40:38;;;;;;;1999.90;999.90;;;2.80;99.90;;;;;;5055219;28;20084;-74
2023/01/17 02:43:09;;;;;;;1999.90;999.90;;;2.80;99.90;;;;;;5070495;28;20029;-74
2023/01/17 02:45:34;;;;;;;1999.90;999.90;;;2.80;99.90;;;;;;5054841;28;20103;-74
2023/01/17 02:48:00;;;;;;;1999.90;999.90;;;2.80;99.90;;;;;;5055005;28;20040;-74
2023/01/17 02:50:36;;;;;;;1999.90;999.90;;;2.90;99.90;;;;;;5070244;28;20048;-74
2023/01/17 02:53:39;;;;;;;1999.90;999.90;;;2.90;99.90;;;;;;5054067;28;20075;-74
2023/01/17 02:56:19;;;;;;;1999.90;999.90;;;2.90;99.90;;;;;;5034716;28;20423;-74
2023/01/17 02:59:00;;;;;;;1999.90;999.90;;;3.00;99.90;;;;;;5054906;28;20025;-74
2023/01/17 03:01:45;;;;;;;1999.90;999.90;;;3.00;99.90;;;;;;5055000;28;20160;-74
2023/01/17 03:04:23;;;;;;;1999.90;999.90;;;3.00;99.90;;;;;;5054905;28;20044;-74
2023/01/17 03:07:00;;;;;;;1999.90;999.90;;;3.00;99.90;;;;;;5054693;28;20029;-74
2023/01/17 03:09:26;;;;;;;1999.90;999.90;;;2.90;99.90;;;;;;5053225;28;20038;-74
2023/01/17 03:11:52;;;;;;;1999.90;999.90;;;2.90;99.90;;;;;;5054836;28;20026;-74
2023/01/17 03:14:18;;;;;;;1999.90;999.90;;;2.80;99.90;;;;;;5054269;28;20033;-74
2023/01/17 03:16:44;;;;;;;1999.90;999.90;;;2.80;99.90;;;;;;5054264;28;20029;-74
2023/01/17 03:19:09;;;;;;;1999.90;999.90;;;2.80;99.90;;;;;;5078309;28;20061;-74
2023/01/17 03:21:35;;;;;;;1999.90;999.90;;;2.80;99.90;;;;;;5065871;28;20504;-74
2023/01/17 03:24:01;;;;;;;1999.90;999.90;;;2.80;99.90;;;;;;5054995;28;20033;-74
2023/01/17 03:26:27;;;;;;;1999.90;999.90;;;2.90;99.90;;;;;;5054420;28;20470;-75
2023/01/17 03:28:53;;;;;;;1999.90;999.90;;;2.90;99.90;;;;;;5054524;28;20037;-74
2023/01/17 03:31:18;;;;;;;1999.90;999.90;;;2.90;99.90;;;;;;5054556;28;20480;-74
2023/01/17 03:33:44;;;;;;;1999.90;999.90;;;2.90;99.90;;;;;;5053563;28;20038;-74
2023/01/17 03:36:13;;;;;;;1999.90;999.90;;;2.90;99.90;;;;;;5054308;28;20043;-74
2023/01/17 03:38:39;;;;;;;1999.90;999.90;;;2.90;99.90;;;;;;5052605;28;20030;-74
2023/01/17 03:41:05;;;;;;;1999.90;999.90;;;2.90;99.90;;;;;;5052861;28;20025;-74
2023/01/17 03:43:30;;;;;;;1999.90;999.90;;;2.90;99.90;;;;;;5053950;28;20072;-74
2023/01/17 03:46:05;;;;;;;1999.90;999.90;;;2.90;99.90;;;;;;5052542;28;20041;-73
2023/01/17 03:48:31;;;;;;;1999.90;999.90;;;2.90;99.90;;;;;;5053790;28;20533;-74
2023/01/17 03:50:56;;;;;;;1999.90;999.90;;;2.80;99.90;;;;;;5054087;28;20038;-74
2023/01/17 03:53:22;;;;;;;1999.90;999.90;;;2.80;99.90;;;;;;5053818;28;20392;-74
2023/01/17 03:55:48;;;;;;;1999.90;999.90;;;2.80;99.90;;;;;;5053696;28;20037;-74
2023/01/17 03:58:15;;;;;;;1999.90;999.90;;;2.80;99.90;;;;;;5053901;28;20483;-74
2023/01/17 04:00:40;;;;;;;1999.90;999.90;;;2.80;99.90;;;;;;5053980;28;20029;-74
2023/01/17 04:03:06;;;;;;;1999.90;999.90;;;2.70;99.90;;;;;;5053827;28;20052;-74
2023/01/17 04:05:31;;;;;;;1999.90;999.90;;;2.60;99.90;;;;;;5057141;28;20040;-73
2023/01/17 04:07:57;;;;;;;1999.90;999.90;;;2.50;99.90;;;;;;5057061;28;20546;-74
2023/01/17 04:10:22;;;;;;;1999.90;999.90;;;2.50;99.90;;;;;;5057425;28;20487;-74
2023/01/17 04:12:48;;;;;;;1999.90;999.90;;;2.30;99.90;;;;;;5057365;28;20029;-74
2023/01/17 04:15:14;;;;;;;1999.90;999.90;;;2.20;99.90;;;;;;5056954;28;20087;-74
2023/01/17 04:17:40;;;;;;;1999.90;999.90;;;2.20;99.90;;;;;;5056955;28;20033;-74
2023/01/17 04:20:06;;;;;;;1999.90;999.90;;;2.10;99.90;;;;;;5057293;28;20087;-74
2023/01/17 04:22:31;;;;;;;1999.90;999.90;;;2.10;99.90;;;;;;5057406;28;20037;-74
2023/01/17 04:24:58;;;;;;;1999.90;999.90;;;2.10;99.90;;;;;;5056920;28;20041;-74
2023/01/17 04:27:23;;;;;;;1999.90;999.90;;;2.30;99.90;;;;;;5057011;28;20044;-74
2023/01/17 04:29:49;;;;;;;1999.90;999.90;;;2.40;99.90;;;;;;5056579;28;20428;-74
2023/01/17 04:32:14;;;;;;;1999.90;999.90;;;2.40;99.90;;;;;;5057102;28;20044;-74
2023/01/17 04:34:40;;;;;;;1999.90;999.90;;;2.60;99.90;;;;;;5056517;28;20049;-74
2023/01/17 04:37:06;;;;;;;1999.90;999.90;;;2.60;99.90;;;;;;5057060;28;20108;-74
2023/01/17 04:39:31;;;;;;;1999.90;999.90;;;2.60;99.90;;;;;;5056875;28;20033;-74
2023/01/17 04:41:57;;;;;;;1999.90;999.90;;;2.60;99.90;;;;;;5056980;28;20032;-74
2023/01/17 04:44:22;;;;;;;1999.90;999.90;;;2.70;99.90;;;;;;5056902;28;20044;-73
2023/01/17 04:46:48;;;;;;;1999.90;999.90;;;2.70;99.90;;;;;;5056385;28;20033;-73
2023/01/17 04:49:13;;;;;;;1999.90;999.90;;;2.60;99.90;;;;;;5056623;28;20037;-74
2023/01/17 04:51:39;;;;;;;1999.90;999.90;;;2.70;99.90;;;;;;5056663;28;20395;-74
2023/01/17 04:54:04;;;;;;;1999.90;999.90;;;2.60;99.90;;;;;;5056542;28;20806;-74
2023/01/17 04:56:30;;;;;;;1999.90;999.90;;;2.60;99.90;;;;;;5056177;28;20084;-74
2023/01/17 04:58:57;;;;;;;1999.90;999.90;;;2.50;99.90;;;;;;5055376;28;20037;-74
2023/01/17 05:01:22;;;;;;;1999.90;999.90;;;2.40;99.90;;;;;;5056590;28;20065;-74
2023/01/17 05:03:48;;;;;;;1999.90;999.90;;;2.30;99.90;;;;;;5056550;28;20065;-74
2023/01/17 05:06:14;;;;;;;1999.90;999.90;;;2.20;99.90;;;;;;5056258;28;20036;-74
2023/01/17 05:08:39;;;;;;;1999.90;999.90;;;2.20;99.90;;;;;;5056437;28;20117;-74
2023/01/17 05:11:05;;;;;;;1999.90;999.90;;;2.20;99.90;;;;;;5056345;28;20037;-75
2023/01/17 05:13:30;;;;;;;1999.90;999.90;;;2.10;99.90;;;;;;5054719;28;20037;-74
2023/01/17 05:15:57;;;;;;;1999.90;999.90;;;2.00;99.90;;;;;;5055920;28;20446;-74
2023/01/17 05:18:22;;;;;;;1999.90;999.90;;;2.00;99.90;;;;;;5056245;28;20085;-74
2023/01/17 05:20:48;;;;;;;1999.90;999.90;;;1.90;99.90;;;;;;5056338;28;20029;-74
2023/01/17 05:23:13;;;;;;;1999.90;999.90;;;1.90;99.90;;;;;;5056076;28;20029;-74
2023/01/17 05:25:43;;;;;;;1999.90;999.90;;;1.90;99.90;;;;;;5056157;28;20033;-74
2023/01/17 05:28:08;;;;;;;1999.90;999.90;;;1.90;99.90;;;;;;5059029;28;20022;-74
2023/01/17 05:30:34;;;;;;;1999.90;999.90;;;1.70;99.90;;;;;;5058315;28;20036;-76
2023/01/17 05:32:59;;;;;;;1999.90;999.90;;;1.60;99.90;;;;;;5081673;28;20037;-74
2023/01/17 05:35:28;;;;;;;1999.90;999.90;;;1.50;99.90;;;;;;5056573;28;20041;-75
2023/01/17 05:37:54;;;;;;;1999.90;999.90;;;1.40;99.90;;;;;;5055969;28;20029;-75
2023/01/17 05:40:28;;;;;;;1999.90;999.90;;;1.20;99.90;;;;;;5055040;28;20091;-75
2023/01/17 05:42:57;;;;;;;1999.90;999.90;;;1.10;99.90;;;;;;5055687;28;20077;-75
2023/01/17 05:45:25;;;;;;;1999.90;999.90;;;0.90;99.90;;;;;;5055652;28;20037;-75
2023/01/17 05:47:52;;;;;;;1999.90;999.90;;;0.90;99.90;;;;;;5055611;28;20036;-75
2023/01/17 05:50:23;;;;;;;1999.90;999.90;;;1.00;99.90;;;;;;5055817;28;20044;-74
2023/01/17 05:52:52;;;;;;;1999.90;999.90;;;1.00;99.90;;;;;;5055743;28;20025;-75
2023/01/17 05:55:18;;;;;;;1999.90;999.90;;;0.90;99.90;;;;;;5055319;28;20029;-75
2023/01/17 05:57:44;;;;;;;1999.90;999.90;;;0.80;99.90;;;;;;5055488;28;20029;-75
2023/01/17 06:00:10;;;;;;;1999.90;999.90;;;0.80;99.90;;;;;;5055864;28;20033;-76
2023/01/17 06:02:36;;;;;;;1999.90;999.90;;;0.80;99.90;;;;;;5055379;28;20067;-76
2023/01/17 06:05:01;;;;;;;1999.90;999.90;;;0.70;99.90;;;;;;5055022;28;20565;-75
2023/01/17 06:07:27;;;;;;;1999.90;999.90;;;0.60;99.90;;;;;;5055208;28;20099;-75
2023/01/17 06:09:52;;;;;;;1999.90;999.90;;;0.60;99.90;;;;;;5053620;28;20037;-75
2023/01/17 06:12:18;;;;;;;1999.90;999.90;;;0.60;99.90;;;;;;5055535;28;20037;-75
2023/01/17 06:14:43;;;;;;;1999.90;999.90;;;0.50;99.90;;;;;;5055014;28;20362;-75
2023/01/17 06:17:09;;;;;;;1999.90;999.90;;;0.60;99.90;;;;;;5053825;28;20486;-76
2023/01/17 06:19:34;;;;;;;1999.90;999.90;;;0.60;99.90;;;;;;5054736;28;20115;-75
2023/01/17 06:22:02;;;;;;;1999.90;999.90;;;0.60;99.90;;;;;;5058026;28;20033;-75
2023/01/17 06:24:29;;;;;;;1999.90;999.90;;;0.50;99.90;;;;;;5055848;28;20154;-75
2023/01/17 06:26:54;;;;;;;1999.90;999.90;;;0.50;99.90;;;;;;5056062;28;20081;-76
2023/01/17 06:29:20;;;;;;;1999.90;999.90;;;0.40;99.90;;;;;;5056813;28;20558;-76
2023/01/17 06:31:45;;;;;;;1999.90;999.90;;;0.30;99.90;;;;;;5056614;28;20061;-76
2023/01/17 06:34:11;;;;;;;1999.90;999.90;;;0.20;99.90;;;;;;5072953;22;20052;-79
2023/01/17 06:36:36;;;;;;;1999.90;999.90;;;0.10;99.90;;;;;;5093200;28;20059;-77
2023/01/17 06:39:02;;;;;;;1999.90;999.90;;;0.10;99.90;;;;;;5095003;28;20478;-78
2023/01/17 06:41:28;;;;;;;1999.90;999.90;;;0.10;99.90;;;;;;5094653;28;20036;-79
2023/01/17 06:43:54;;;;;;;1999.90;999.90;;;0.10;99.90;;;;;;5096596;28;20032;-79
2023/01/17 06:46:20;;;;;;;1999.90;999.90;;;0.00;99.90;;;;;;5094606;28;20043;-78
2023/01/17 06:48:47;;;;;;;1999.90;999.90;;;0.00;99.90;;;;;;5096314;28;20036;-78
2023/01/17 06:51:13;;;;;;;1999.90;999.90;;;-0.10;99.90;;;;;;5094938;28;20044;-79
2023/01/17 06:53:39;;;;;;;1999.90;999.90;;;-0.10;99.90;;;;;;5095472;28;20078;-78
2023/01/17 06:56:05;;;;;;;1999.90;999.90;;;-0.20;99.90;;;;;;5095031;28;20097;-78
2023/01/17 06:58:30;;;;;;;1999.90;999.90;;;-0.30;99.90;;;;;;5096446;28;20025;-77
2023/01/17 07:00:56;;;;;;;1999.90;999.90;;;-0.40;99.90;;;;;;5096904;28;20038;-78
2023/01/17 07:03:25;;;;;;;1999.90;999.90;;;-0.30;99.90;;;;;;5096370;28;20029;-78
2023/01/17 07:05:51;;;;;;;1999.90;999.90;;;-0.20;99.90;;;;;;5096056;28;20059;-78
2023/01/17 07:08:18;;;;;;;1999.90;999.90;;;-0.30;99.90;;;;;;5095042;28;20033;-78
2023/01/17 07:10:47;;;;;;;1999.90;999.90;;;-0.50;99.90;;;;;;5094776;28;20037;-79
2023/01/17 07:13:13;;;;;;;1999.90;999.90;;;-0.40;99.90;;;;;;5096631;28;20078;-77
2023/01/17 07:15:39;;;;;;;1999.90;999.90;;;-0.50;99.90;;;;;;5096495;28;20102;-79
2023/01/17 07:18:05;;;;;;;1999.90;999.90;;;-0.50;99.90;;;;;;5096419;28;20029;-78
2023/01/17 07:20:31;;;;;;;1999.90;999.90;;;-0.50;99.90;;;;;;5094522;28;20038;-78
2023/01/17 07:22:57;;;;;;;1999.90;999.90;;;-0.60;99.90;;;;;;5096177;28;20024;-79
2023/01/17 07:25:22;;;;;;;1999.90;999.90;;;-0.50;99.90;;;;;;5096863;28;20086;-78
2023/01/17 07:27:51;;;;;;;1999.90;999.90;;;-0.50;99.90;;;;;;5097204;28;20037;-78
2023/01/17 07:30:17;;;;;;;1999.90;999.90;;;-0.50;99.90;;;;;;5095707;28;20498;-78
2023/01/17 07:32:43;;;;;;;1999.90;999.90;;;-0.50;99.90;;;;;;5095800;28;20037;-78
2023/01/17 07:35:08;;;;;;;1999.90;999.90;;;-0.40;99.90;;;;;;5095023;28;20402;-79
2023/01/17 07:37:35;;;;;;;1999.90;999.90;;;-0.40;99.90;;;;;;5097947;28;20083;-78
2023/01/17 07:40:01;;;;;;;1999.90;999.90;;;-0.30;99.90;;;;;;5099366;28;20064;-81
2023/01/17 07:42:27;;;;;;;1999.90;999.90;;;-0.10;99.90;;;;;;5100193;28;20033;-80
2023/01/17 07:44:52;;;;;;;1999.90;999.90;;;0.00;99.90;;;;;;5101331;28;20047;-80
2023/01/17 07:47:18;;;;;;;1999.90;999.90;;;0.20;99.90;;;;;;5101846;28;20020;-78
2023/01/17 07:49:44;;;;;;;1999.90;999.90;;;0.30;99.90;;;;;;5100406;28;20047;-78
2023/01/17 07:52:09;;;;;;;1999.90;999.90;;;0.50;99.90;;;;;;5100503;28;20139;-79
2023/01/17 07:54:35;;;;;;;1999.90;999.90;;;0.70;99.90;;;;;;5098380;28;20037;-79
2023/01/17 07:57:01;;;;;;;1999.90;999.90;;;0.80;99.90;;;;;;5099025;28;20028;-79
2023/01/17 07:59:26;;;;;;;1999.90;999.90;;;1.00;99.90;;;;;;5100162;28;20045;-79
2023/01/17 08:01:52;;;;;;;1999.90;999.90;;;1.10;99.90;;;;;;5100300;28;20494;-78
2023/01/17 08:04:17;;;;;;;1999.90;999.90;;;1.20;99.90;;;;;;5103337;28;20055;-78
2023/01/17 08:06:46;;;;;;;1999.90;999.90;;;1.40;99.90;;;;;;5115192;28;20032;-79
2023/01/17 08:09:12;;;;;;;1999.90;999.90;;;1.50;99.90;;;;;;5102268;28;20044;-81
2023/01/17 08:11:37;;;;;;;1999.90;999.90;;;1.60;99.90;;;;;;5121099;28;20118;-80
2023/01/17 08:14:03;;;;;;;1999.90;999.90;;;1.70;99.90;;;;;;5110945;28;20115;-80
2023/01/17 08:16:29;;;;;;;1999.90;999.90;;;1.80;99.90;;;;;;5078395;28;20079;-79
2023/01/17 08:18:55;;;;;;;1999.90;999.90;;;1.80;99.90;;;;;;5078993;28;20040;-79
2023/01/17 08:21:21;;;;;;;1999.90;999.90;;;1.80;99.90;;;;;;5079080;28;20391;-79
2023/01/17 08:23:47;;;;;;;1999.90;999.90;;;1.80;99.90;;;;;;5078873;28;20474;-79
2023/01/17 08:26:20;;;;;;;1999.90;999.90;;;1.90;99.90;;;;;;5078848;28;20043;-79
2023/01/17 08:28:47;;;;;;;1999.90;999.90;;;2.00;99.90;;;;;;5078069;28;20033;-79
2023/01/17 08:31:12;;;;;;;1999.90;999.90;;;2.10;99.90;;;;;;5080261;28;20037;-79
2023/01/17 08:33:38;;;;;;;1999.90;999.90;;;2.10;99.90;;;;;;5080970;28;20032;-79
2023/01/17 08:36:03;;;;;;;1999.90;999.90;;;2.10;99.90;;;;;;5081770;28;20029;-79
2023/01/17 08:38:29;;;;;;;1999.90;999.90;;;2.10;99.90;;;;;;5082312;28;20047;-79
2023/01/17 08:40:54;;;;;;;1999.90;999.90;;;2.10;99.90;;;;;;5081141;28;20037;-79
2023/01/17 08:43:20;;;;;;;1999.90;999.90;;;2.20;99.90;;;;;;5081428;28;20149;-79
2023/01/17 08:45:47;;;;;;;1999.90;999.90;;;2.30;99.90;;;;;;5083619;28;20029;-79
2023/01/17 08:48:13;;;;;;;1999.90;999.90;;;2.40;99.90;;;;;;5086747;28;20035;-81
2023/01/17 08:50:39;;;;;;;1999.90;999.90;;;2.40;99.90;;;;;;5100017;28;20047;-78
2023/01/17 08:53:04;;;;;;;1999.90;999.90;;;2.40;99.90;;;;;;5083981;28;20413;-79
2023/01/17 08:55:32;;;;;;;1999.90;999.90;;;2.30;99.90;;;;;;5089584;28;20040;-79
2023/01/17 08:57:57;;;;;;;1999.90;999.90;;;2.30;99.90;;;;;;5081648;28;20463;-82
2023/01/17 09:00:23;;;;;;;1999.90;999.90;;;2.40;99.90;;;;;;5094843;28;20048;-79
2023/01/17 09:02:51;;;;;;;1999.90;999.90;;;2.40;99.90;;;;;;5087816;28;20033;-79
2023/01/17 09:05:17;;;;;;;1999.90;999.90;;;2.60;99.90;;;;;;5092050;28;20036;-79
2023/01/17 09:07:43;;;;;;;1999.90;999.90;;;2.60;99.90;;;;;;5097677;28;20033;-79
2023/01/17 09:10:09;;;;;;;1999.90;999.90;;;2.60;99.90;;;;;;5095945;28;20042;-81
2023/01/17 09:12:35;;;;;;;1999.90;999.90;;;2.70;99.90;;;;;;5097754;28;20025;-79
2023/01/17 09:15:01;;;;;;;1999.90;999.90;;;2.70;99.90;;;;;;5097449;28;20494;-79
2023/01/17 09:17:27;;;;;;;1999.90;999.90;;;2.80;99.90;;;;;;5097437;28;20490;-79
2023/01/17 09:19:52;;;;;;;1999.90;999.90;;;2.80;99.90;;;;;;5097618;28;20040;-79
2023/01/17 09:22:18;;;;;;;1999.90;999.90;;;2.90;99.90;;;;;;5097275;28;20024;-79
2023/01/17 09:24:44;;;;;;;1999.90;999.90;;;2.90;99.90;;;;;;5095051;28;20059;-80
2023/01/17 09:27:09;;;;;;;1999.90;999.90;;;3.00;99.90;;;;;;5075821;28;20390;-80
2023/01/17 09:29:35;;;;;;;1999.90;999.90;;;3.10;99.90;;;;;;5076722;28;20131;-79
2023/01/17 09:32:00;;;;;;;1999.90;999.90;;;3.10;99.90;;;;;;5075179;28;20025;-80
2023/01/17 09:34:26;;;;;;;1999.90;999.90;;;3.20;99.90;;;;;;5074508;28;20033;-79
2023/01/17 09:36:52;;;;;;;1999.90;999.90;;;3.30;99.90;;;;;;5075069;28;20033;-79
2023/01/17 09:39:17;;;;;;;1999.90;999.90;;;3.40;99.90;;;;;;5089261;28;20060;-80
2023/01/17 09:41:57;;;;;;;1999.90;999.90;;;3.50;99.90;;;;;;5095762;28;20025;-79
2023/01/17 09:44:45;;;;;;;1999.90;999.90;;;3.60;99.90;;;;;;5096933;28;20033;-82
2023/01/17 09:47:33;;;;;;;1999.90;999.90;;;3.70;99.90;;;;;;5087070;28;20032;-79
2023/01/17 09:50:30;;;;;;;1999.90;999.90;;;3.80;99.90;;;;;;5094280;28;20029;-78
2023/01/17 09:53:15;;;;;;;1999.90;999.90;;;3.90;99.90;;;;;;5089247;28;20033;-79
2023/01/17 09:55:48;;;;;;;1999.90;999.90;;;4.10;99.90;;;;;;5075998;28;20394;-79
2023/01/17 09:58:30;;;;;;;1999.90;999.90;;;4.20;99.90;;;;;;5074662;28;20037;-79
2023/01/17 10:01:23;;;;;;;1999.90;999.90;;;4.30;99.90;;;;;;5074032;28;20033;-79
2023/01/17 10:04:10;;;;;;;1999.90;999.90;;;4.60;99.90;;;;;;5075897;28;20033;-80
2023/01/17 10:07:11;;;;;;;1999.90;999.90;;;4.80;99.90;;;;;;5092534;28;20846;-79
2023/01/17 10:10:08;;;;;;;1999.90;999.90;;;5.00;99.90;;;;;;5038892;28;20058;-79
2023/01/17 10:12:47;;;;;;;1999.90;999.90;;;5.00;99.90;;;;;;5094658;28;20028;-78
2023/01/17 10:15:44;;;;;;;1999.90;999.90;;;5.20;99.90;;;;;;5094551;28;20036;-79
2023/01/17 10:18:28;;;;;;;1999.90;999.90;;;5.30;99.90;;;;;;5095061;28;20024;-79
2023/01/17 10:21:12;;;;;;;1999.90;999.90;;;5.40;99.90;;;;;;5094617;28;20036;-79
2023/01/17 10:24:15;;;;;;;1999.90;999.90;;;5.50;99.90;;;;;;5094214;28;20519;-79
2023/01/17 10:26:43;;;;;;;1999.90;999.90;;;5.60;99.90;;;;;;5093221;28;20487;-80
2023/01/17 10:29:17;;;;;;;1999.90;999.90;;;5.80;99.90;;;;;;5094815;28;20032;-79
2023/01/17 10:31:54;;;;;;;1999.90;999.90;;;5.80;99.90;;;;;;5093788;28;20044;-79
2023/01/17 10:34:41;;;;;;;1999.90;999.90;;;5.60;99.90;;;;;;5094239;28;20035;-79
2023/01/17 10:37:45;;;;;;;1999.90;999.90;;;5.50;99.90;;;;;;5095251;28;20564;-79
2023/01/17 10:40:18;;;;;;;1999.90;999.90;;;5.40;99.90;;;;;;5095026;28;20036;-79
2023/01/17 10:42:54;;;;;;;1999.90;999.90;;;5.30;99.90;;;;;;5096539;28;20111;-79
2023/01/17 10:45:27;;;;;;;1999.90;999.90;;;5.30;99.90;;;;;;5094668;28;20119;-79
2023/01/17 10:48:18;;;;;;;1999.90;999.90;;;5.20;99.90;;;;;;5095152;28;20090;-79
2023/01/17 10:50:59;;;;;;;1999.90;999.90;;;5.20;99.90;;;;;;5094916;28;20041;-79
2023/01/17 10:53:37;;;;;;;1999.90;999.90;;;5.30;99.90;;;;;;5095380;28;20033;-79
2023/01/17 10:56:03;;;;;;;1999.90;999.90;;;5.30;99.90;;;;;;5096044;28;20036;-79
2023/01/17 10:58:30;;;;;;;1999.90;999.90;;;5.40;99.90;;;;;;5095040;28;20589;-81
2023/01/17 11:01:01;;;;;;;1999.90;999.90;;;5.50;99.90;;;;;;5096046;28;20123;-80
2023/01/17 11:03:27;;;;;;;1999.90;999.90;;;5.50;99.90;;;;;;5097484;28;20489;-79
2023/01/17 11:06:18;;;;;;;1999.90;999.90;;;5.60;99.90;;;;;;5094409;28;20041;-79
2023/01/17 11:08:55;;;;;;;1999.90;999.90;;;5.70;99.90;;;;;;5094385;28;20093;-79
2023/01/17 11:11:24;;;;;;;1999.90;999.90;;;5.60;99.90;;;;;;5095642;28;20033;-79
2023/01/17 11:13:53;;;;;;;1999.90;999.90;;;5.70;99.90;;;;;;5094181;28;20039;-78
2023/01/17 11:16:22;;;;;;;1999.90;999.90;;;5.80;99.90;;;;;;5094195;28;20040;-79
2023/01/17 11:19:11;;;;;;;1999.90;999.90;;;5.80;99.90;;;;;;5094082;28;20058;-79
2023/01/17 11:21:39;;;;;;;1999.90;999.90;;;5.80;99.90;;;;;;5096416;28;20056;-79
2023/01/17 11:24:18;;;;;;;1999.90;999.90;;;5.80;99.90;;;;;;5096356;28;20041;-80
2023/01/17 11:26:48;;;;;;;1999.90;999.90;;;5.80;99.90;;;;;;5094639;28;20055;-80
2023/01/17 11:29:25;;;;;;;1999.90;999.90;;;5.70;99.90;;;;;;5094445;28;20037;-79
2023/01/17 11:31:52;;;;;;;1999.90;999.90;;;5.90;99.90;;;;;;5101548;28;20040;-78
2023/01/17 11:34:23;;;;;;;1999.90;999.90;;;5.80;99.90;;;;;;5116003;27;20048;-78
2023/01/17 11:36:52;;;;;;;1999.90;999.90;;;5.80;99.90;;;;;;5117017;27;20063;-81
2023/01/17 11:39:18;;;;;;;1999.90;999.90;;;5.90;99.90;;;;;;5116281;28;20043;-78
2023/01/17 11:41:46;;;;;;;1999.90;999.90;;;6.00;99.90;;;;;;5117105;28;20036;-80
2023/01/17 11:44:28;;;;;;;1999.90;999.90;;;6.00;99.30;;;;;;5116411;27;20103;-80
2023/01/17 11:47:12;;;;;;;1999.90;999.90;;;5.90;97.90;;;;;;5115041;28;20055;-80
2023/01/17 11:49:45;;;;;;;1999.90;999.90;;;6.00;97.30;;;;;;5116725;28;20110;-80
2023/01/17 11:52:23;;;;;;;1999.90;999.90;;;6.20;97.60;;;;;;5114974;28;20028;-80
2023/01/17 11:54:50;;;;;;;1999.90;999.90;;;6.10;98.30;;;;;;5116625;27;20032;-81
2023/01/17 11:57:18;;;;;;;1999.90;999.90;;;6.10;99.90;;;;;;5115385;28;20039;-79
2023/01/17 11:59:44;;;;;;;1999.90;999.90;;;6.00;98.80;;;;;;5117641;28;20105;-80
2023/01/17 12:02:30;;;;;;;1999.90;999.90;;;5.80;97.40;;;;;;5116453;28;20075;-80
2023/01/17 12:05:14;;;;;;;1999.90;999.90;;;5.70;97.00;;;;;;5117295;27;20037;-80
2023/01/17 12:07:58;;;;;;;1999.90;999.90;;;5.70;97.30;;;;;;5117060;28;20128;-81
2023/01/17 12:10:59;;;;;;;1999.90;999.90;;;5.70;96.70;;;;;;5116774;28;20086;-80
2023/01/17 12:16:31;;;;;;;1999.90;999.90;;;5.60;98.80;;;;;;5116474;28;20107;-79
2023/01/17 12:19:12;;;;;;;1999.90;999.90;;;5.60;98.00;;;;;;5120462;28;20036;-78
2023/01/17 12:22:01;;;;;;;1999.90;999.90;;;5.80;98.70;;;;;;5115737;28;20036;-79
2023/01/17 12:24:38;;;;;;;1999.90;999.90;;;5.90;98.00;;;;;;5116669;27;20028;-79
2023/01/17 12:27:28;;;;;;;1999.90;999.90;;;5.90;98.00;;;;;;5120875;28;20036;-79
2023/01/17 12:30:32;;;;;;;1999.90;999.90;;;5.90;97.20;;;;;;5120525;27;20890;-80
2023/01/17 12:33:20;;;;;;;1999.90;999.90;;;5.90;98.50;;;;;;5121897;27;20082;-80
2023/01/17 12:36:00;;;;;;;1999.90;999.90;;;5.80;97.60;;;;;;5095712;22;20042;-73
2023/01/17 12:38:37;;;;;;;1999.90;999.90;;;5.80;98.00;;;;;;5056666;28;20045;-73
2023/01/17 12:41:11;;;;;;;1999.90;999.90;;;5.80;97.40;;;;;;5057018;28;20021;-73
2023/01/17 12:43:40;;;;;;;1999.90;999.90;;;5.90;96.90;;;;;;5055392;28;20173;-73
2023/01/17 12:46:42;;;;;;;1999.90;999.90;;;5.90;97.30;;;;;;5072034;28;20037;-73
2023/01/17 12:49:38;;;;;;;1999.90;999.90;;;5.90;97.50;;;;;;5054808;28;20033;-74
2023/01/17 12:52:17;;;;;;;1999.90;999.90;;;6.10;98.00;;;;;;5057442;28;20037;-73
2023/01/17 12:54:52;;;;;;;1999.90;999.90;;;6.10;97.80;;;;;;5056399;28;20103;-76
2023/01/17 12:57:30;;;;;;;1999.90;999.90;;;6.20;97.20;;;;;;5056553;28;20040;-76
2023/01/17 13:00:25;;;;;;;1999.90;999.90;;;6.30;96.90;;;;;;5056769;28;20033;-76
2023/01/17 13:03:19;;;;;;;1999.90;999.90;;;6.30;96.10;;;;;;5055577;28;20048;-77
2023/01/17 13:05:47;;;;;;;1999.90;999.90;;;6.40;96.60;;;;;;5056306;28;20087;-77
2023/01/17 13:08:22;;;;;;;1999.90;999.90;;;6.40;96.40;;;;;;5056444;28;20037;-76
2023/01/17 13:11:10;;;;;;;1999.90;999.90;;;6.50;96.00;;;;;;5055117;28;20049;-75
2023/01/17 13:13:38;;;;;;;1999.90;999.90;;;6.40;96.20;;;;;;5056687;28;20029;-75
2023/01/17 13:16:26;;;;;;;1999.90;999.90;;;6.30;96.20;;;;;;5056182;28;20482;-75
2023/01/17 13:18:52;;;;;;;1999.90;999.90;;;6.20;96.50;;;;;;5056454;28;20360;-75
2023/01/17 13:21:28;;;;;;;1999.90;999.90;;;6.00;96.70;;;;;;5055017;28;20044;-76
2023/01/17 13:24:02;;;;;;;1999.90;999.90;;;6.00;97.80;;;;;;5056033;28;20491;-74
2023/01/17 13:26:52;;;;;;;1999.90;999.90;;;5.80;97.40;;;;;;5056214;28;20040;-73
2023/01/17 13:29:55;;;;;;;1999.90;999.90;;;5.70;97.70;;;;;;5056248;28;20095;-75
2023/01/17 13:32:50;;;;;;;1999.90;999.90;;;5.60;97.80;;;;;;5056277;28;20045;-74
2023/01/17 13:35:21;;;;;;;1999.90;999.90;;;5.70;98.70;;;;;;5054393;28;20045;-74
2023/01/17 13:38:07;;;;;;;1999.90;999.90;;;5.60;99.20;;;;;;5056178;28;20030;-73
2023/01/17 13:40:51;;;;;;;1999.90;999.90;;;5.60;98.40;;;;;;5055599;28;20033;-73
2023/01/17 13:43:24;;;;;;;1999.90;999.90;;;5.50;99.10;;;;;;5056198;28;20519;-74
2023/01/17 13:45:56;;;;;;;1999.90;999.90;;;5.50;98.80;;;;;;5055918;28;20498;-74
2023/01/17 13:48:22;;;;;;;1999.90;999.90;;;5.50;99.10;;;;;;5055831;28;20136;-73
2023/01/17 13:51:01;;;;;;;1999.90;999.90;;;5.40;98.40;;;;;;5055683;28;20044;-74
2023/01/17 13:53:32;;;;;;;1999.90;999.90;;;5.40;99.20;;;;;;5055809;28;20042;-73
2023/01/17 13:56:10;;;;;;;1999.90;999.90;;;5.40;99.40;;;;;;5055359;28;20064;-74